createdAt,value
2022-12-01T00:00:30.331Z,33.55
2022-12-01T00:03:01.743Z,35.85
2022-12-01T00:05:35.279Z,43.92
2022-12-01T00:08:02.762Z,44.67
2022-12-01T00:10:36.197Z,43.38
2022-12-01T00:13:11.284Z,39.13
2022-12-01T00:15:38.114Z,41.03
2022-12-01T00:18:14.257Z,42.28
2022-12-01T00:20:41.144Z,46.63
2022-12-01T00:23:08.236Z,58.58
2022-12-01T00:25:41.345Z,49.08
2022-12-01T00:28:15.261Z,40.45
2022-12-01T00:30:42.176Z,41.30
2022-12-01T00:33:15.290Z,37.50
2022-12-01T00:35:48.271Z,40.50
2022-12-01T00:38:21.293Z,39.10
2022-12-01T00:40:48.047Z,39.83
2022-12-01T00:45:55.183Z,37.90
2022-12-01T00:48:29.310Z,38.75
2022-12-01T00:50:56.510Z,37.83
2022-12-01T00:53:24.726Z,38.72
2022-12-01T00:56:00.279Z,42.50
2022-12-01T00:58:33.342Z,45.00
2022-12-01T01:01:01.643Z,43.72
2022-12-01T01:03:37.324Z,41.15
2022-12-01T01:06:10.420Z,41.42
2022-12-01T01:08:37.261Z,38.60
2022-12-01T01:11:12.370Z,48.08
2022-12-01T01:13:45.417Z,48.78
2022-12-01T01:16:24.533Z,46.28
2022-12-01T01:18:51.360Z,49.67
2022-12-01T01:21:27.362Z,53.40
2022-12-01T01:24:01.387Z,53.35
2022-12-01T01:26:30.499Z,50.60
2022-12-01T01:28:59.982Z,47.83
2022-12-01T01:31:35.392Z,46.83
2022-12-01T01:34:10.328Z,41.60
2022-12-01T01:36:43.396Z,43.30
2022-12-01T01:39:10.264Z,45.55
2022-12-01T01:41:43.405Z,44.17
2022-12-01T01:45:01.749Z,45.65
2022-12-01T01:47:45.428Z,49.13
2022-12-01T01:50:16.309Z,44.83
2022-12-01T01:52:57.487Z,46.10
2022-12-01T01:55:24.950Z,45.65
2022-12-01T01:57:51.814Z,49.22
2022-12-01T02:00:28.413Z,46.83
2022-12-01T02:02:57.982Z,40.15
2022-12-01T02:05:35.428Z,47.78
2022-12-01T02:08:03.519Z,43.60
2022-12-01T02:11:18.440Z,47.03
2022-12-01T02:14:06.422Z,43.63
2022-12-01T02:17:13.438Z,45.05
2022-12-01T02:20:11.437Z,39.72
2022-12-01T02:23:35.462Z,46.28
2022-12-01T02:26:18.961Z,51.40
2022-12-01T02:29:15.488Z,50.20
2022-12-01T02:31:54.552Z,55.28
2022-12-01T02:34:29.938Z,48.58
2022-12-01T02:37:26.443Z,56.97
2022-12-01T02:40:17.576Z,49.28
2022-12-01T02:43:06.791Z,49.20
2022-12-01T02:46:06.535Z,48.47
2022-12-01T02:48:36.564Z,42.42
2022-12-01T02:51:24.499Z,43.72
2022-12-01T02:54:00.522Z,40.78
2022-12-01T02:56:33.472Z,46.10
2022-12-01T02:59:06.517Z,47.50
2022-12-01T03:01:57.504Z,45.92
2022-12-01T03:04:30.581Z,56.08
2022-12-01T03:06:57.310Z,57.70
2022-12-01T03:09:58.569Z,60.05
2022-12-01T03:12:43.522Z,57.55
2022-12-01T03:15:45.622Z,59.63
2022-12-01T03:18:31.531Z,56.25
2022-12-01T03:20:58.310Z,53.40
2022-12-01T03:23:36.526Z,50.10
2022-12-01T03:26:07.119Z,51.65
2022-12-01T03:28:50.720Z,54.03
2022-12-01T03:31:22.856Z,52.33
2022-12-01T03:34:03.616Z,47.58
2022-12-01T03:37:08.622Z,48.22
2022-12-01T03:39:43.509Z,44.85
2022-12-01T03:42:22.567Z,44.80
2022-12-01T03:44:59.645Z,45.22
2022-12-01T03:47:35.683Z,55.67
2022-12-01T03:50:10.608Z,51.22
2022-12-01T03:53:08.603Z,52.53
2022-12-01T03:55:48.581Z,55.53
2022-12-01T03:58:26.001Z,52.75
2022-12-01T04:01:03.608Z,48.35
2022-12-01T04:03:37.580Z,52.08
2022-12-01T04:06:04.945Z,45.85
2022-12-01T04:08:33.755Z,56.75
2022-12-01T04:11:07.648Z,55.53
2022-12-01T04:13:40.622Z,55.83
2022-12-01T04:16:14.681Z,54.30
2022-12-01T04:18:47.583Z,54.40
2022-12-01T04:21:20.641Z,58.13
2022-12-01T04:24:03.413Z,62.58
2022-12-01T04:26:43.620Z,49.33
2022-12-01T04:29:12.139Z,48.30
2022-12-01T04:31:45.672Z,56.90
2022-12-01T04:34:18.643Z,50.55
2022-12-01T04:36:45.650Z,55.90
2022-12-01T04:39:13.206Z,45.28
2022-12-01T04:41:46.684Z,56.92
2022-12-01T04:44:20.639Z,55.08
2022-12-01T04:46:47.695Z,55.15
2022-12-01T04:49:21.684Z,48.75
2022-12-01T04:51:49.371Z,48.28
2022-12-01T04:54:23.684Z,48.60
2022-12-01T04:56:52.893Z,46.50
2022-12-01T04:59:19.822Z,49.50
2022-12-01T05:01:54.731Z,41.83
2022-12-01T05:04:21.567Z,41.85
2022-12-01T05:06:54.859Z,38.45
2022-12-01T05:09:21.625Z,40.88
2022-12-01T05:11:54.775Z,33.30
2022-12-01T05:14:27.699Z,39.15
2022-12-01T05:16:55.190Z,47.65
2022-12-01T05:19:46.928Z,53.08
2022-12-01T05:22:36.688Z,59.15
2022-12-01T05:25:13.018Z,52.88
2022-12-01T05:27:50.696Z,44.35
2022-12-01T05:30:28.505Z,61.40
2022-12-01T05:32:59.957Z,55.13
2022-12-01T05:35:33.765Z,49.95
2022-12-01T05:38:04.653Z,44.85
2022-12-01T05:40:41.710Z,69.45
2022-12-01T05:43:12.772Z,61.83
2022-12-01T05:45:45.748Z,59.55
2022-12-01T05:48:19.731Z,63.38
2022-12-01T05:50:46.610Z,66.50
2022-12-01T05:53:20.774Z,67.20
2022-12-01T05:55:54.595Z,63.60
2022-12-01T05:58:35.809Z,63.13
2022-12-01T06:01:03.193Z,52.78
2022-12-01T06:03:30.173Z,58.67
2022-12-01T06:06:03.994Z,55.50
2022-12-01T06:08:30.805Z,60.38
2022-12-01T06:11:03.801Z,57.03
2022-12-01T06:13:30.590Z,50.83
2022-12-01T06:16:09.815Z,57.13
2022-12-01T06:18:38.384Z,53.22
2022-12-01T06:21:18.782Z,47.67
2022-12-01T06:23:45.749Z,49.83
2022-12-01T06:26:18.801Z,50.75
2022-12-01T06:28:45.581Z,47.42
2022-12-01T06:31:19.870Z,51.75
2022-12-01T06:33:46.744Z,55.42
2022-12-01T06:36:19.879Z,54.78
2022-12-01T06:38:46.769Z,53.85
2022-12-01T06:41:19.814Z,48.53
2022-12-01T06:43:46.818Z,65.13
2022-12-01T06:46:14.235Z,60.72
2022-12-01T06:48:47.832Z,53.60
2022-12-01T06:51:20.857Z,46.05
2022-12-01T06:53:47.705Z,50.67
2022-12-01T06:56:28.024Z,53.00
2022-12-01T06:58:55.655Z,48.35
2022-12-01T07:01:28.873Z,47.60
2022-12-01T07:04:02.993Z,48.55
2022-12-01T07:06:37.867Z,67.22
2022-12-01T07:09:04.796Z,62.65
2022-12-01T07:11:38.910Z,60.30
2022-12-01T07:14:05.837Z,56.65
2022-12-01T07:16:38.978Z,54.10
2022-12-01T07:19:05.924Z,62.55
2022-12-01T07:21:38.941Z,61.40
2022-12-01T07:24:13.023Z,53.50
2022-12-01T07:26:41.254Z,54.10
2022-12-01T07:29:15.904Z,51.30
2022-12-01T07:31:42.710Z,52.90
2022-12-01T07:34:19.941Z,58.65
2022-12-01T07:36:46.848Z,58.95
2022-12-01T07:39:19.946Z,52.58
2022-12-01T07:41:46.876Z,50.88
2022-12-01T07:44:20.931Z,58.13
2022-12-01T07:46:47.757Z,55.10
2022-12-01T07:49:21.998Z,53.17
2022-12-01T07:51:48.757Z,53.72
2022-12-01T07:54:23.109Z,54.40
2022-12-01T07:56:49.939Z,60.75
2022-12-01T07:59:22.960Z,54.30
2022-12-01T08:01:49.880Z,62.70
2022-12-01T08:04:23.085Z,56.22
2022-12-01T08:06:50.024Z,77.95
2022-12-01T08:09:23.135Z,73.35
2022-12-01T08:11:49.973Z,69.20
2022-12-01T08:14:23.028Z,60.47
2022-12-01T08:16:49.912Z,61.42
2022-12-01T08:19:22.993Z,62.20
2022-12-01T08:21:57.119Z,62.67
2022-12-01T08:24:30.024Z,71.80
2022-12-01T08:27:04.007Z,74.38
2022-12-01T08:29:30.785Z,70.93
2022-12-01T08:32:05.023Z,70.25
2022-12-01T08:34:36.247Z,64.10
2022-12-01T08:37:10.019Z,60.13
2022-12-01T08:39:36.860Z,69.88
2022-12-01T08:42:03.839Z,58.80
2022-12-01T08:44:37.053Z,58.60
2022-12-01T08:47:12.043Z,63.33
2022-12-01T08:49:48.438Z,59.67
2022-12-01T08:52:27.069Z,63.38
2022-12-01T08:54:54.014Z,71.63
2022-12-01T08:57:28.076Z,60.72
2022-12-01T08:59:54.958Z,62.53
2022-12-01T09:02:24.784Z,57.53
2022-12-01T09:04:58.080Z,55.72
2022-12-01T09:07:27.019Z,65.90
2022-12-01T09:10:01.072Z,66.50
2022-12-01T09:12:30.747Z,61.80
2022-12-01T09:14:57.707Z,69.22
2022-12-01T09:17:32.091Z,59.58
2022-12-01T09:20:05.291Z,53.45
2022-12-01T09:22:34.668Z,58.30
2022-12-01T09:25:08.265Z,48.15
2022-12-01T09:27:35.271Z,47.75
2022-12-01T09:30:02.208Z,41.20
2022-12-01T09:32:38.068Z,48.33
2022-12-01T09:35:12.119Z,48.17
2022-12-01T09:37:46.183Z,46.88
2022-12-01T09:40:15.280Z,58.25
2022-12-01T09:43:00.225Z,49.60
2022-12-01T09:45:35.199Z,57.25
2022-12-01T09:48:14.174Z,61.85
2022-12-01T09:50:47.183Z,61.17
2022-12-01T09:53:26.117Z,64.07
2022-12-01T09:56:05.912Z,64.30
2022-12-01T10:01:27.230Z,63.08
2022-12-01T10:04:05.141Z,66.53
2022-12-01T10:07:09.439Z,73.88
2022-12-01T10:10:03.332Z,76.55
2022-12-01T10:12:33.652Z,65.15
2022-12-01T10:15:21.191Z,71.85
2022-12-01T10:18:38.250Z,69.30
2022-12-01T10:21:25.169Z,91.43
2022-12-01T10:24:10.551Z,102.95
2022-12-01T10:26:58.229Z,129.20
2022-12-01T10:29:35.205Z,84.40
2022-12-01T10:32:13.400Z,73.35
2022-12-01T10:34:49.260Z,80.45
2022-12-01T10:37:24.240Z,73.95
2022-12-01T10:40:00.208Z,74.10
2022-12-01T10:42:41.372Z,74.40
2022-12-01T10:45:22.202Z,89.05
2022-12-01T10:48:15.364Z,75.60
2022-12-01T10:51:02.245Z,71.20
2022-12-01T10:53:33.592Z,68.60
2022-12-01T10:56:28.239Z,72.93
2022-12-01T10:59:04.544Z,77.03
2022-12-01T11:01:42.401Z,64.88
2022-12-01T11:04:45.332Z,68.20
2022-12-01T11:07:41.336Z,57.58
2022-12-01T11:10:30.609Z,57.97
2022-12-01T11:13:21.490Z,62.17
2022-12-01T11:16:07.321Z,54.58
2022-12-01T11:18:43.267Z,55.60
2022-12-01T11:21:26.696Z,58.00
2022-12-01T11:24:03.272Z,52.33
2022-12-01T11:26:32.220Z,59.35
2022-12-01T11:29:27.447Z,63.22
2022-12-01T11:31:54.882Z,61.63
2022-12-01T11:34:24.755Z,55.83
2022-12-01T11:37:21.381Z,52.05
2022-12-01T11:39:49.647Z,49.78
2022-12-01T11:42:37.302Z,55.42
2022-12-01T11:45:18.424Z,49.83
2022-12-01T11:48:25.327Z,45.00
2022-12-01T11:51:10.407Z,58.72
2022-12-01T11:53:46.385Z,61.67
2022-12-01T11:56:23.813Z,52.10
2022-12-01T11:59:07.338Z,49.55
2022-12-01T12:02:03.443Z,51.55
2022-12-01T12:04:49.467Z,57.70
2022-12-01T12:07:46.364Z,48.05
2022-12-01T12:10:31.507Z,51.40
2022-12-01T12:13:07.359Z,59.72
2022-12-01T12:15:50.265Z,53.45
2022-12-01T12:18:30.360Z,53.97
2022-12-01T12:21:15.693Z,49.15
2022-12-01T12:23:58.360Z,54.47
2022-12-01T12:26:52.391Z,54.25
2022-12-01T12:29:34.540Z,49.47
2022-12-01T12:32:10.382Z,48.10
2022-12-01T12:34:37.139Z,53.85
2022-12-01T12:37:38.380Z,53.35
2022-12-01T12:40:28.387Z,51.10
2022-12-01T12:43:44.384Z,50.83
2022-12-01T12:46:37.463Z,47.15
2022-12-01T12:49:37.610Z,42.15
2022-12-01T12:52:16.764Z,40.38
2022-12-01T12:55:25.494Z,48.75
2022-12-01T12:58:10.787Z,50.92
2022-12-01T13:01:02.511Z,48.42
2022-12-01T13:03:54.564Z,55.08
2022-12-01T13:06:42.720Z,51.00
2022-12-01T13:09:29.477Z,49.33
2022-12-01T13:12:24.131Z,46.95
2022-12-01T13:15:22.528Z,47.00
2022-12-01T13:18:20.423Z,45.45
2022-12-01T13:20:48.128Z,40.83
2022-12-01T13:23:24.559Z,48.63
2022-12-01T13:26:01.528Z,45.65
2022-12-01T13:28:35.293Z,42.47
2022-12-01T13:31:08.557Z,40.28
2022-12-01T13:33:38.943Z,37.83
2022-12-01T13:36:47.943Z,33.55
2022-12-01T13:39:29.489Z,41.60
2022-12-01T13:42:30.479Z,40.42
2022-12-01T13:45:00.343Z,38.80
2022-12-01T13:48:10.640Z,38.85
2022-12-01T13:50:43.865Z,47.08
2022-12-01T13:53:17.604Z,41.58
2022-12-01T13:56:07.394Z,46.35
2022-12-01T13:58:40.540Z,41.45
2022-12-01T14:01:21.542Z,40.70
2022-12-01T14:04:18.562Z,39.28
2022-12-01T14:06:56.610Z,39.03
2022-12-01T14:09:44.555Z,45.17
2022-12-01T14:12:11.366Z,41.50
2022-12-01T14:14:48.586Z,42.40
2022-12-01T14:17:33.551Z,40.78
2022-12-01T14:20:28.232Z,42.67
2022-12-01T14:23:20.515Z,41.58
2022-12-01T14:26:25.545Z,35.97
2022-12-01T14:28:55.454Z,34.92
2022-12-01T14:31:29.636Z,51.53
2022-12-01T14:34:19.073Z,44.33
2022-12-01T14:36:58.198Z,37.55
2022-12-01T14:39:44.873Z,33.42
2022-12-01T14:42:18.639Z,38.08
2022-12-01T14:44:49.851Z,29.35
2022-12-01T14:47:33.617Z,34.00
2022-12-01T14:50:14.604Z,36.35
2022-12-01T14:52:47.647Z,35.15
2022-12-01T14:55:40.704Z,38.95
2022-12-01T14:58:17.876Z,33.28
2022-12-01T15:01:06.654Z,31.05
2022-12-01T15:03:48.733Z,33.17
2022-12-01T15:06:23.586Z,29.73
2022-12-01T15:09:33.382Z,34.58
2022-12-01T15:12:04.861Z,30.27
2022-12-01T15:14:55.735Z,33.35
2022-12-01T15:17:34.644Z,26.60
2022-12-01T15:20:07.662Z,25.50
2022-12-01T15:22:41.665Z,29.88
2022-12-01T15:25:15.619Z,26.27
2022-12-01T15:27:51.661Z,26.23
2022-12-01T15:30:25.647Z,22.63
2022-12-01T15:32:52.557Z,25.77
2022-12-01T15:35:28.692Z,27.58
2022-12-01T15:38:10.675Z,28.75
2022-12-01T15:41:20.710Z,29.35
2022-12-01T15:43:44.679Z,29.63
2022-12-01T15:46:24.809Z,35.25
2022-12-01T15:49:07.023Z,38.20
2022-12-01T15:51:40.702Z,32.35
2022-12-01T15:54:20.328Z,32.85
2022-12-01T15:56:58.676Z,31.10
2022-12-01T15:59:47.763Z,35.88
2022-12-01T16:02:24.810Z,49.25
2022-12-01T16:05:10.746Z,39.30
2022-12-01T16:08:11.639Z,42.80
2022-12-01T16:10:43.690Z,42.92
2022-12-01T16:13:47.666Z,39.65
2022-12-01T16:16:59.992Z,34.75
2022-12-01T16:19:42.742Z,41.13
2022-12-01T16:22:21.734Z,34.47
2022-12-01T16:25:01.730Z,47.72
2022-12-01T16:27:37.753Z,34.95
2022-12-01T16:30:19.143Z,37.97
2022-12-01T16:32:54.797Z,41.75
2022-12-01T16:35:21.586Z,39.95
2022-12-01T16:37:54.784Z,41.53
2022-12-01T16:40:21.547Z,38.95
2022-12-01T16:42:57.765Z,29.90
2022-12-01T16:45:32.807Z,33.88
2022-12-01T16:48:07.776Z,28.73
2022-12-01T16:50:42.810Z,28.05
2022-12-01T16:53:18.765Z,28.73
2022-12-01T16:55:53.084Z,25.95
2022-12-01T16:58:26.936Z,24.17
2022-12-01T17:00:54.338Z,28.27
2022-12-01T17:03:33.810Z,30.67
2022-12-01T17:06:02.265Z,30.52
2022-12-01T17:08:38.837Z,31.52
2022-12-01T17:11:10.541Z,26.55
2022-12-01T17:13:47.882Z,26.73
2022-12-01T17:16:18.452Z,25.30
2022-12-01T17:18:45.938Z,23.70
2022-12-01T17:21:24.863Z,26.90
2022-12-01T17:23:51.698Z,24.30
2022-12-01T17:26:32.878Z,21.98
2022-12-01T17:28:59.839Z,25.00
2022-12-01T17:31:33.870Z,23.67
2022-12-01T17:34:00.745Z,24.90
2022-12-01T17:36:34.950Z,24.60
2022-12-01T17:39:01.710Z,26.38
2022-12-01T17:41:41.829Z,27.02
2022-12-01T17:44:08.691Z,26.83
2022-12-01T17:46:41.967Z,25.27
2022-12-01T17:49:10.592Z,25.60
2022-12-01T17:51:37.835Z,24.58
2022-12-01T17:54:11.881Z,22.08
2022-12-01T17:56:38.668Z,27.00
2022-12-01T17:59:11.861Z,25.95
2022-12-01T18:01:39.499Z,26.33
2022-12-01T18:04:12.880Z,24.98
2022-12-01T18:06:50.782Z,26.20
2022-12-01T18:09:21.084Z,23.33
2022-12-01T18:11:54.880Z,28.65
2022-12-01T18:14:28.920Z,25.13
2022-12-01T18:16:55.984Z,27.25
2022-12-01T18:19:29.029Z,29.35
2022-12-01T18:22:00.908Z,32.28
2022-12-01T18:24:33.911Z,28.50
2022-12-01T18:27:00.922Z,26.30
2022-12-01T18:29:35.004Z,27.25
2022-12-01T18:32:02.052Z,33.70
2022-12-01T18:34:38.958Z,35.97
2022-12-01T18:37:12.935Z,32.75
2022-12-01T18:39:39.840Z,40.22
2022-12-01T18:42:12.972Z,42.72
2022-12-01T18:44:46.972Z,49.15
2022-12-01T18:47:14.537Z,42.42
2022-12-01T18:49:47.999Z,41.08
2022-12-01T18:52:18.196Z,35.97
2022-12-01T18:54:45.098Z,36.63
2022-12-01T18:57:19.015Z,36.47
2022-12-01T18:59:53.016Z,38.10
2022-12-01T19:02:19.998Z,32.90
2022-12-01T19:04:55.964Z,33.15
2022-12-01T19:07:36.282Z,34.45
2022-12-01T19:10:10.956Z,37.50
2022-12-01T19:12:44.041Z,31.48
2022-12-01T19:15:11.471Z,35.83
2022-12-01T19:17:38.750Z,36.42
2022-12-01T19:20:13.998Z,37.72
2022-12-01T19:22:46.985Z,32.95
2022-12-01T19:25:14.027Z,31.63
2022-12-01T19:27:47.050Z,30.23
2022-12-01T19:30:20.993Z,29.23
2022-12-01T19:32:48.539Z,33.20
2022-12-01T19:35:22.058Z,29.38
2022-12-01T19:37:48.983Z,30.38
2022-12-01T19:40:22.085Z,28.95
2022-12-01T19:42:48.977Z,31.80
2022-12-01T19:45:22.060Z,32.33
2022-12-01T19:47:49.083Z,28.70
2022-12-01T19:50:22.160Z,29.60
2022-12-01T19:52:49.357Z,32.47
2022-12-01T19:55:23.133Z,34.53
2022-12-01T19:57:51.731Z,37.78
2022-12-01T20:00:28.114Z,33.10
2022-12-01T20:02:54.893Z,31.00
2022-12-01T20:05:28.153Z,32.33
2022-12-01T20:08:01.180Z,29.00
2022-12-01T20:10:28.216Z,29.80
2022-12-01T20:12:57.533Z,31.75
2022-12-01T20:15:31.099Z,29.00
2022-12-01T20:17:57.911Z,41.03
2022-12-01T20:20:31.122Z,37.58
2022-12-01T20:22:59.995Z,38.85
2022-12-01T20:25:40.073Z,35.33
2022-12-01T20:28:06.832Z,37.63
2022-12-01T20:30:40.149Z,33.13
2022-12-01T20:33:06.964Z,35.80
2022-12-01T20:35:33.840Z,36.97
2022-12-01T20:38:07.129Z,38.78
2022-12-01T20:40:33.899Z,34.35
2022-12-01T20:43:00.716Z,50.25
2022-12-01T20:45:34.209Z,37.20
2022-12-01T20:48:07.121Z,34.08
2022-12-01T20:50:33.949Z,40.80
2022-12-01T20:53:00.844Z,38.72
2022-12-01T20:55:34.144Z,45.45
2022-12-01T20:58:09.177Z,41.25
2022-12-01T21:00:41.713Z,41.60
2022-12-01T21:03:08.871Z,45.58
2022-12-01T21:05:46.146Z,48.22
2022-12-01T21:08:14.866Z,46.92
2022-12-01T21:10:51.200Z,48.30
2022-12-01T21:13:39.093Z,45.60
2022-12-01T21:16:17.395Z,40.17
2022-12-01T21:19:02.202Z,44.03
2022-12-01T21:21:37.398Z,43.13
2022-12-01T21:24:13.572Z,41.85
2022-12-01T21:26:58.221Z,43.78
2022-12-01T21:29:38.478Z,42.33
2022-12-01T21:32:26.356Z,35.88
2022-12-01T21:34:55.263Z,41.83
2022-12-01T21:37:31.316Z,43.60
2022-12-01T21:40:05.282Z,42.33
2022-12-01T21:42:38.326Z,38.05
2022-12-01T21:45:14.354Z,45.40
2022-12-01T21:47:48.233Z,44.97
2022-12-01T21:50:36.260Z,40.58
2022-12-01T21:53:27.257Z,38.55
2022-12-01T21:55:57.882Z,39.17
2022-12-01T21:58:34.243Z,44.15
2022-12-01T22:01:02.704Z,42.80
2022-12-01T22:03:34.051Z,45.53
2022-12-01T22:06:31.381Z,40.85
2022-12-01T22:09:08.257Z,50.67
2022-12-01T22:11:41.312Z,41.85
2022-12-01T22:14:39.430Z,43.05
2022-12-01T22:17:12.370Z,39.50
2022-12-01T22:19:53.705Z,43.40
2022-12-01T22:22:39.289Z,42.35
2022-12-01T22:25:24.186Z,40.92
2022-12-01T22:27:59.330Z,41.38
2022-12-01T22:30:26.197Z,48.63
2022-12-01T22:33:04.296Z,47.33
2022-12-01T22:35:48.437Z,45.13
2022-12-01T22:38:45.285Z,41.15
2022-12-01T22:41:17.050Z,42.42
2022-12-01T22:44:07.337Z,44.45
2022-12-01T22:46:37.607Z,47.78
2022-12-01T22:49:17.372Z,51.22
2022-12-01T22:52:04.404Z,56.33
2022-12-01T22:54:51.549Z,53.92
2022-12-01T22:57:41.322Z,55.65
2022-12-01T23:00:23.424Z,50.15
2022-12-01T23:03:02.403Z,49.35
2022-12-01T23:05:37.353Z,46.83
2022-12-01T23:08:10.672Z,46.60
2022-12-01T23:10:46.379Z,53.85
2022-12-01T23:13:22.701Z,53.38
2022-12-01T23:16:00.457Z,48.28
2022-12-01T23:18:33.868Z,43.67
2022-12-01T23:21:08.529Z,49.33
2022-12-01T23:23:37.113Z,43.20
2022-12-01T23:26:06.833Z,48.42
2022-12-01T23:28:42.377Z,46.50
2022-12-01T23:31:16.461Z,42.25
2022-12-01T23:33:43.272Z,43.33
2022-12-01T23:36:25.419Z,60.05
2022-12-01T23:38:55.642Z,56.17
2022-12-01T23:41:52.381Z,49.85
2022-12-01T23:44:39.764Z,53.22
2022-12-01T23:47:25.415Z,55.83
2022-12-01T23:50:00.676Z,56.92
2022-12-01T23:52:40.402Z,54.72
2022-12-01T23:55:34.175Z,58.35
2022-12-01T23:58:08.420Z,54.85
